Bison, South Dakota
Current Conditions -  °F | °C
As of 1:25 AM on Thursday 27 Nov 2014 (Local Time) from KHEI Reporting Station
Overcast Overcast  
Wind Chill: -2°   Ceiling: 5000
Heat Index:   Visibility: 10mi
Dew Point:   Wind: 7mph
Humidity: 88%   Direction: 130°SE
Pressure: 30.29"   Gusts: NA
Location:  45.52°N, 102.46°W
Report Text: KHEI 270825Z AUTO 13006KT 10SM FEW007 OVC050 M13/M14 A3029 RMK AO2 T11281144
Loading
Personal Weather Stations






























Interactive Weather Map New forecast layout! Learn more

10-Day Weather Forecast

Advertisements
Track Severe Weather on mobile